Terminal Aerodrome Forecast
Issued by NWS

Home | Current Version | Previous Version | Text Only | Print | Product List | Glossary On
Versions: 1 2 3 4 5 6 7 8 9 10 11 12
000
FTUS45 KBOI 262328
TAFMYL
TAF
KMYL 262328Z 2700/2724 27011KT P6SM SCT050 BKN100 BKN250
     FM270200 34005KT P6SM BKN250
     FM272100 27008G16KT P6SM BKN070 BKN150=

USA.gov is the U.S. government's official web portal to all federal, state and local government web resources and services.